TimeMDT,TemperatureF,Dew PointF,Humidity,Sea Level PressureIn,VisibilityMPH,Wind Direction,Wind SpeedMPH,Gust SpeedMPH,PrecipitationIn,Events,Conditions,WindDirDegrees,DateUTC
12:53 AM,25.0,21.0,85,30.43,3.0,ENE,12.7,-,0.00,Snow,Light Snow,70,2013-04-17 06:53:00
1:03 AM,24.8,21.2,86,30.33,2.5,ENE,10.4,-,0.00,Snow,Light Snow,70,2013-04-17 07:03:00
1:11 AM,24.8,21.2,86,30.33,1.8,ENE,10.4,-,0.00,Snow,Light Snow,70,2013-04-17 07:11:00
1:23 AM,24.8,21.2,86,30.33,1.0,ENE,9.2,-,0.00,Snow,Light Snow,70,2013-04-17 07:23:00
1:53 AM,24.1,21.9,91,30.43,1.5,ENE,9.2,-,0.01,Snow,Light Snow,60,2013-04-17 07:53:00
2:19 AM,24.8,21.2,86,30.32,1.8,ENE,9.2,-,0.00,Snow,Light Snow,60,2013-04-17 08:19:00
2:39 AM,24.8,21.2,86,30.32,3.0,ENE,8.1,-,0.00,Snow,Light Snow,60,2013-04-17 08:39:00
2:53 AM,24.1,21.0,88,30.42,4.0,ENE,8.1,-,0.00,Snow,Light Snow,70,2013-04-17 08:53:00
3:18 AM,24.8,21.2,86,30.31,4.0,ENE,8.1,-,0.01,Snow,Light Snow,70,2013-04-17 09:18:00
3:53 AM,23.0,19.9,88,30.41,5.0,East,8.1,-,0.01,Snow,Light Snow,80,2013-04-17 09:53:00
4:18 AM,21.2,19.4,93,30.31,10.0,East,6.9,-,0.00,,Overcast,80,2013-04-17 10:18:00
4:53 AM,21.9,19.0,89,30.41,10.0,ENE,9.2,-,0.00,,Mostly Cloudy,60,2013-04-17 10:53:00
5:53 AM,21.9,19.0,89,30.41,10.0,North,3.5,-,N/A,,Overcast,10,2013-04-17 11:53:00
6:08 AM,23.0,19.4,86,30.30,10.0,North,3.5,-,N/A,,Overcast,10,2013-04-17 12:08:00
6:46 AM,23.0,19.4,86,30.31,2.0,ENE,3.5,-,0.00,Snow,Light Snow,60,2013-04-17 12:46:00
6:53 AM,23.0,19.9,88,30.41,1.8,NE,3.5,-,0.00,Snow,Light Snow,40,2013-04-17 12:53:00
7:25 AM,23.0,19.4,86,30.31,2.5,North,3.5,-,0.00,Snow,Light Snow,360,2013-04-17 13:25:00
7:53 AM,24.1,21.0,88,30.42,2.0,NNW,4.6,-,0.00,Snow,Light Snow,340,2013-04-17 13:53:00
8:06 AM,24.8,21.2,86,30.31,3.0,NNW,4.6,-,0.00,Snow,Light Snow,340,2013-04-17 14:06:00
8:53 AM,25.0,21.0,85,30.41,5.0,NW,5.8,-,0.00,Snow,Light Snow,320,2013-04-17 14:53:00
9:53 AM,26.1,21.0,81,30.41,10.0,NW,9.2,-,0.00,,Clear,310,2013-04-17 15:53:00
10:53 AM,27.0,19.9,75,30.42,10.0,NW,9.2,-,N/A,,Clear,310,2013-04-17 16:53:00
11:53 AM,28.0,19.0,69,30.42,10.0,NW,10.4,-,N/A,,Partly Cloudy,310,2013-04-17 17:53:00
12:53 PM,28.0,19.0,69,30.41,10.0,NW,10.4,-,N/A,,Clear,320,2013-04-17 18:53:00
1:53 PM,28.9,17.1,61,30.40,10.0,NW,11.5,-,N/A,,Clear,320,2013-04-17 19:53:00
2:53 PM,28.4,15.8,59,30.30,10.0,NW,9.2,-,N/A,,Clear,320,2013-04-17 20:53:00
3:53 PM,30.0,19.0,64,30.39,10.0,NW,9.2,-,N/A,,Clear,310,2013-04-17 21:53:00
4:53 PM,30.0,17.1,59,30.40,10.0,NW,10.4,-,N/A,,Clear,320,2013-04-17 22:53:00
5:53 PM,30.9,18.0,59,30.40,10.0,NW,8.1,-,N/A,,Scattered Clouds,320,2013-04-17 23:53:00
6:53 PM,30.0,19.0,64,30.38,10.0,NW,6.9,-,N/A,,Clear,320,2013-04-18 00:53:00
7:53 PM,28.0,19.9,72,30.38,10.0,WSW,3.5,-,N/A,,Clear,250,2013-04-18 01:53:00
8:53 PM,27.0,19.0,72,30.39,10.0,Calm,Calm,-,N/A,,Clear,0,2013-04-18 02:53:00
9:53 PM,26.1,19.0,75,30.40,10.0,Calm,Calm,-,N/A,,Clear,0,2013-04-18 03:53:00
10:53 PM,21.0,16.0,81,30.39,10.0,Calm,Calm,-,N/A,,Clear,0,2013-04-18 04:53:00
11:53 PM,19.0,14.0,81,30.37,10.0,Calm,Calm,-,N/A,,Clear,0,2013-04-18 05:53:00